Time;durP1;ratioP1;P1;durP2;ratioP2;P2;SDS_P1;SDS_P2;PMS_P1;PMS_P2;Temp;Humidity;BMP_temperature;BMP_pressure;BME280_temperature;BME280_humidity;BME280_pressure;Samples;Min_cycle;Max_cycle;Signal;HPM_P1;HPM_P2
2022/07/10 00:01:06;;;;;;;4.63;0.95;;;13.90;99.90;;;;;;6224251;22;20061;-82
2022/07/10 00:03:32;;;;;;;6.30;1.00;;;13.90;99.90;;;;;;6247679;22;20019;-83
2022/07/10 00:05:58;;;;;;;6.43;1.15;;;14.00;99.90;;;;;;6248131;22;20019;-83
2022/07/10 00:08:24;;;;;;;2.83;1.02;;;14.00;99.90;;;;;;6251441;22;20344;-81
2022/07/10 00:10:51;;;;;;;5.90;1.00;;;13.90;99.90;;;;;;6226299;22;20022;-81
2022/07/10 00:13:17;;;;;;;4.45;1.23;;;14.00;99.90;;;;;;6250906;22;20469;-81
2022/07/10 00:15:43;;;;;;;5.90;1.10;;;13.90;99.90;;;;;;6280243;22;20050;-81
2022/07/10 00:18:28;;;;;;;7.03;1.08;;;13.90;99.90;;;;;;6277131;22;20022;-82
2022/07/10 00:20:58;;;;;;;6.55;0.80;;;13.90;99.90;;;;;;6283540;22;20023;-82
2022/07/10 00:23:24;;;;;;;8.97;1.33;;;13.90;99.90;;;;;;6258029;22;20051;-82
2022/07/10 00:25:49;;;;;;;7.93;0.95;;;13.90;99.90;;;;;;6226784;22;20442;-84
2022/07/10 00:28:16;;;;;;;5.82;0.80;;;13.90;99.90;;;;;;6209719;22;20095;-82
2022/07/10 00:30:42;;;;;;;3.75;1.08;;;13.90;99.90;;;;;;6204277;22;20483;-81
2022/07/10 00:33:46;;;;;;;5.50;1.00;;;13.90;99.90;;;;;;6236785;22;20041;-81
2022/07/10 00:36:49;;;;;;;6.35;1.05;;;13.80;99.90;;;;;;6234817;22;20008;-82
2022/07/10 00:39:37;;;;;;;8.20;1.10;;;13.90;99.90;;;;;;6250281;22;20456;-82
2022/07/10 00:42:21;;;;;;;6.03;0.80;;;13.80;99.90;;;;;;6248799;22;20454;-84
2022/07/10 00:44:47;;;;;;;7.25;1.10;;;13.80;99.90;;;;;;6218258;22;20069;-84
2022/07/10 00:47:17;;;;;;;5.18;1.05;;;13.80;99.90;;;;;;6218243;22;20019;-84
2022/07/10 00:49:43;;;;;;;7.40;1.65;;;13.80;99.90;;;;;;6191804;22;20027;-82
2022/07/10 00:52:15;;;;;;;7.87;1.37;;;13.80;99.90;;;;;;6168638;22;20019;-85
2022/07/10 00:54:47;;;;;;;7.03;1.30;;;13.70;99.90;;;;;;6218413;22;20026;-83
2022/07/10 00:57:15;;;;;;;8.32;1.92;;;13.70;99.90;;;;;;6218405;22;20457;-83
2022/07/10 00:59:41;;;;;;;;;;;13.70;99.90;;;;;;6243313;22;20072;-82
2022/07/10 01:02:07;;;;;;;6.70;1.30;;;13.60;99.90;;;;;;6243714;22;19915;-83
2022/07/10 01:04:33;;;;;;;11.30;2.10;;;13.60;99.90;;;;;;6241298;22;20069;-84
2022/07/10 01:07:00;;;;;;;5.93;1.23;;;13.60;99.90;;;;;;6192291;22;20020;-87
2022/07/10 01:09:27;;;;;;;7.13;1.45;;;13.60;99.90;;;;;;6242829;22;20019;-84
2022/07/10 01:12:01;;;;;;;10.30;1.30;;;13.60;99.90;;;;;;6220226;22;20018;-84
2022/07/10 01:14:30;;;;;;;5.25;1.08;;;13.70;99.90;;;;;;6192394;22;20025;-84
2022/07/10 01:16:59;;;;;;;7.30;1.20;;;13.70;99.90;;;;;;6193368;22;20016;-83
2022/07/10 01:19:26;;;;;;;6.90;1.00;;;13.80;99.90;;;;;;6215960;22;20027;-84
2022/07/10 01:21:52;;;;;;;8.85;1.33;;;13.80;99.90;;;;;;6217808;22;20015;-84
2022/07/10 01:24:19;;;;;;;9.70;1.20;;;13.80;99.90;;;;;;6217820;22;20091;-84
2022/07/10 01:26:45;;;;;;;12.15;1.83;;;13.80;99.90;;;;;;6206903;22;20694;-83
2022/07/10 01:29:11;;;;;;;7.50;1.30;;;13.80;99.90;;;;;;6217213;22;20020;-83
2022/07/10 01:31:39;;;;;;;5.78;1.40;;;13.80;99.90;;;;;;6235172;22;20023;-84
2022/07/10 01:34:07;;;;;;;4.13;1.05;;;13.80;99.90;;;;;;6221052;22;20030;-83
2022/07/10 01:36:34;;;;;;;6.38;1.20;;;13.90;99.90;;;;;;6222044;22;20656;-85
2022/07/10 01:39:00;;;;;;;6.03;1.45;;;13.80;99.90;;;;;;6248072;22;20015;-85
2022/07/10 01:41:26;;;;;;;4.93;1.10;;;13.80;99.90;;;;;;6222374;22;20022;-83
2022/07/10 01:43:53;;;;;;;7.55;1.20;;;13.70;99.90;;;;;;6222308;22;20474;-82
2022/07/10 01:46:20;;;;;;;4.77;1.00;;;13.70;99.90;;;;;;6247662;22;20531;-84
2022/07/10 01:48:46;;;;;;;8.25;1.35;;;13.70;99.90;;;;;;6271764;22;20026;-82
2022/07/10 01:51:13;;;;;;;9.98;1.63;;;13.70;99.90;;;;;;6247267;22;20061;-83
2022/07/10 01:53:39;;;;;;;5.03;1.15;;;13.70;99.90;;;;;;6247414;22;20054;-82
2022/07/10 01:56:08;;;;;;;6.68;1.20;;;13.60;99.90;;;;;;6222647;22;20015;-82
2022/07/10 01:58:36;;;;;;;7.60;0.90;;;13.60;99.90;;;;;;6221769;22;20098;-82
2022/07/10 02:01:02;;;;;;;7.18;1.60;;;13.60;99.90;;;;;;6247426;22;20041;-83
2022/07/10 02:08:57;;;;;;;9.63;1.38;;;13.70;99.90;;;;;;6351826;22;20026;-85
2022/07/10 02:11:42;;;;;;;5.80;1.17;;;13.60;99.90;;;;;;6263674;22;20026;-93
2022/07/10 02:14:27;;;;;;;5.57;0.95;;;13.70;99.90;;;;;;6342444;22;20017;-91
2022/07/10 02:16:56;;;;;;;9.63;1.45;;;13.70;99.90;;;;;;6343096;22;20010;-88
2022/07/10 02:19:23;;;;;;;9.73;1.48;;;13.70;99.90;;;;;;6316399;22;20045;-90
2022/07/10 02:21:51;;;;;;;9.23;1.30;;;13.70;99.90;;;;;;6340941;22;20053;-88
2022/07/10 02:24:36;;;;;;;12.55;1.17;;;13.60;99.90;;;;;;6314880;22;20082;-90
2022/07/10 02:27:22;;;;;;;9.90;1.60;;;13.60;99.90;;;;;;6342168;22;20090;-89
2022/07/10 02:30:07;;;;;;;6.47;1.27;;;13.60;99.90;;;;;;6352412;22;20006;-91
2022/07/10 02:33:04;;;;;;;7.85;0.95;;;13.60;99.90;;;;;;6323766;22;20033;-87
2022/07/10 02:39:57;;;;;;;7.15;0.85;;;13.50;99.90;;;;;;6377427;22;20012;-86
2022/07/10 02:46:06;;;;;;;3.03;0.80;;;13.40;99.90;;;;;;6367684;22;20017;-90
2022/07/10 02:48:34;;;;;;;5.05;1.10;;;13.40;99.90;;;;;;6312529;22;20074;-90
2022/07/10 02:51:19;;;;;;;9.73;1.20;;;13.40;99.90;;;;;;6314647;22;20023;-85
2022/07/10 02:53:46;;;;;;;7.18;1.35;;;13.40;99.90;;;;;;6340148;22;20041;-91
2022/07/10 02:56:13;;;;;;;7.43;1.40;;;13.50;99.90;;;;;;6341092;22;20018;-87
2022/07/10 02:58:42;;;;;;;6.40;0.98;;;13.50;99.90;;;;;;6314837;22;20018;-87
2022/07/10 03:01:08;;;;;;;8.77;1.13;;;13.50;99.90;;;;;;6313971;22;20163;-86
2022/07/10 03:03:35;;;;;;;7.25;1.13;;;13.50;99.90;;;;;;6313175;22;20616;-89
2022/07/10 03:06:27;;;;;;;6.53;1.38;;;13.50;99.90;;;;;;6291192;22;20022;-88
2022/07/10 03:08:55;;;;;;;8.20;1.48;;;13.50;99.90;;;;;;6313855;22;20019;-87
2022/07/10 03:11:21;;;;;;;9.15;1.00;;;13.50;99.90;;;;;;6288547;22;20044;-87
2022/07/10 03:13:48;;;;;;;4.72;0.98;;;13.60;99.90;;;;;;6340696;22;20032;-91
2022/07/10 03:16:16;;;;;;;6.55;1.05;;;13.60;99.90;;;;;;6289309;22;20026;-87
2022/07/10 03:18:42;;;;;;;8.05;1.45;;;13.50;99.90;;;;;;6312949;22;20057;-93
2022/07/10 03:21:08;;;;;;;7.85;1.48;;;13.50;99.90;;;;;;6289991;22;20091;-90
2022/07/10 03:23:35;;;;;;;9.65;1.70;;;13.50;99.90;;;;;;6291003;22;20381;-92
2022/07/10 03:26:01;;;;;;;5.50;1.08;;;13.40;99.90;;;;;;6316290;22;20144;-89
2022/07/10 03:28:48;;;;;;;8.68;1.05;;;13.40;99.90;;;;;;6314882;22;20482;-90
2022/07/10 03:31:14;;;;;;;6.75;1.05;;;13.40;99.90;;;;;;6343150;22;20018;-93
2022/07/10 03:33:40;;;;;;;10.52;1.15;;;13.40;99.90;;;;;;6341141;22;20097;-89
2022/07/10 03:36:07;;;;;;;6.35;1.08;;;13.40;99.90;;;;;;6317447;22;20018;-89
2022/07/10 03:38:52;;;;;;;4.78;1.02;;;13.40;99.90;;;;;;6267095;22;20017;-94
2022/07/10 03:41:18;;;;;;;9.98;1.17;;;13.50;99.90;;;;;;6318015;22;20018;-92
2022/07/10 03:43:45;;;;;;;7.97;1.33;;;13.50;99.90;;;;;;6292452;22;20021;-88
2022/07/10 03:46:12;;;;;;;7.95;0.93;;;13.60;99.90;;;;;;6317479;22;20011;-87
2022/07/10 03:49:16;;;;;;;10.88;1.85;;;13.60;99.90;;;;;;6338658;22;20018;-92
2022/07/10 03:51:42;;;;;;;4.80;1.30;;;13.70;99.90;;;;;;6339433;22;20074;-86
2022/07/10 03:54:27;;;;;;;8.57;1.50;;;13.70;99.90;;;;;;6368308;22;20573;-90
2022/07/10 03:59:39;;;;;;;8.30;1.63;;;13.90;99.90;;;;;;6341280;22;20451;-90
2022/07/10 04:02:05;;;;;;;10.43;1.45;;;13.90;99.90;;;;;;6341862;22;20022;-91
2022/07/10 04:04:31;;;;;;;7.88;1.55;;;13.90;99.90;;;;;;6339251;22;20025;-91
2022/07/10 04:06:58;;;;;;;6.82;1.42;;;14.00;99.90;;;;;;6290199;22;20122;-90
2022/07/10 04:09:26;;;;;;;7.50;1.52;;;14.00;99.90;;;;;;6340977;22;20015;-88
2022/07/10 04:11:52;;;;;;;6.88;1.65;;;14.10;99.90;;;;;;6340222;22;20485;-88
2022/07/10 04:14:18;;;;;;;8.10;1.50;;;14.10;99.90;;;;;;6311831;22;20015;-89
2022/07/10 04:16:44;;;;;;;9.18;1.67;;;14.10;99.90;;;;;;6286443;22;20025;-86
2022/07/10 04:19:10;;;;;;;10.93;1.58;;;14.20;99.90;;;;;;6336741;22;20674;-86
2022/07/10 04:21:36;;;;;;;12.18;2.25;;;14.20;99.90;;;;;;6337843;22;20029;-83
2022/07/10 04:24:03;;;;;;;9.82;1.27;;;14.30;99.90;;;;;;6286900;22;20014;-86
2022/07/10 04:26:30;;;;;;;13.43;2.08;;;14.30;99.90;;;;;;6313543;22;20125;-86
2022/07/10 04:28:57;;;;;;;8.27;1.50;;;14.30;99.90;;;;;;6312613;22;20025;-91
2022/07/10 04:31:23;;;;;;;9.43;1.10;;;14.30;99.90;;;;;;6314076;22;20025;-86
2022/07/10 04:33:49;;;;;;;11.07;1.42;;;14.30;99.90;;;;;;6338207;22;20018;-83
2022/07/10 04:36:18;;;;;;;8.15;1.50;;;14.40;99.90;;;;;;6340027;22;20041;-88
2022/07/10 04:38:44;;;;;;;10.35;2.08;;;;;;;;;;6315509;22;20033;-87
2022/07/10 04:41:11;;;;;;;8.10;1.42;;;14.40;99.90;;;;;;6313833;22;20043;-87
2022/07/10 04:43:37;;;;;;;7.63;1.38;;;14.40;99.90;;;;;;6311980;22;20016;-83
2022/07/10 04:46:04;;;;;;;5.97;1.33;;;14.40;99.90;;;;;;6340552;22;20089;-88
2022/07/10 04:48:31;;;;;;;8.95;1.50;;;14.40;99.90;;;;;;6313885;22;20075;-93
2022/07/10 04:50:58;;;;;;;;;;;14.40;99.90;;;;;;6340163;22;20707;-86
2022/07/10 04:53:24;;;;;;;11.30;1.90;;;14.40;99.90;;;;;;6339878;22;19920;-90
2022/07/10 04:55:50;;;;;;;4.95;1.30;;;14.40;99.90;;;;;;6338222;22;20045;-88
2022/07/10 04:58:18;;;;;;;11.13;1.15;;;14.40;99.90;;;;;;6337377;22;20026;-84
2022/07/10 05:00:44;;;;;;;9.65;1.52;;;14.40;99.90;;;;;;6287235;22;20028;-83
2022/07/10 05:03:28;;;;;;;10.80;1.52;;;14.40;99.90;;;;;;6336667;22;20014;-86
2022/07/10 05:05:54;;;;;;;6.82;0.93;;;14.50;99.90;;;;;;6311400;22;20033;-87
2022/07/10 05:08:20;;;;;;;9.13;1.67;;;14.50;99.90;;;;;;6307938;22;20014;-87
2022/07/10 05:10:46;;;;;;;7.00;1.10;;;14.50;99.90;;;;;;6297272;22;20046;-83
2022/07/10 05:13:31;;;;;;;7.75;1.40;;;14.60;99.90;;;;;;6307721;22;20090;-88
2022/07/10 05:15:57;;;;;;;7.93;1.38;;;14.60;99.90;;;;;;6299454;22;20021;-80
2022/07/10 05:18:23;;;;;;;5.70;1.02;;;14.60;99.90;;;;;;6306694;22;20015;-81
2022/07/10 05:20:49;;;;;;;7.13;1.15;;;14.70;99.90;;;;;;6323144;22;20042;-86
2022/07/10 05:23:16;;;;;;;6.80;1.20;;;14.70;99.90;;;;;;6307260;22;20011;-87
2022/07/10 05:25:42;;;;;;;9.10;1.65;;;14.70;99.90;;;;;;6296492;22;20019;-85
2022/07/10 05:28:26;;;;;;;4.95;1.02;;;14.70;99.90;;;;;;6255289;22;20100;-87
2022/07/10 05:30:52;;;;;;;8.05;1.48;;;14.70;99.90;;;;;;6308485;22;20026;-84
2022/07/10 05:33:18;;;;;;;4.57;1.13;;;14.70;99.90;;;;;;6330700;22;20027;-83
2022/07/10 05:36:03;;;;;;;6.63;1.33;;;14.80;99.90;;;;;;6319725;22;20018;-88
2022/07/10 05:38:47;;;;;;;7.78;1.38;;;14.80;99.90;;;;;;6279795;22;20130;-88
2022/07/10 05:41:13;;;;;;;7.28;1.20;;;14.90;99.90;;;;;;6245564;22;20591;-83
2022/07/10 05:43:39;;;;;;;6.93;1.42;;;14.90;99.90;;;;;;6271078;22;20019;-85
2022/07/10 05:46:05;;;;;;;8.27;1.42;;;15.00;99.90;;;;;;6248336;22;20023;-81
2022/07/10 05:48:32;;;;;;;5.35;1.13;;;14.90;99.90;;;;;;6297946;22;20142;-88
2022/07/10 05:50:59;;;;;;;7.93;1.35;;;15.00;99.90;;;;;;6246569;22;20519;-84
2022/07/10 05:53:25;;;;;;;8.50;1.67;;;15.00;99.90;;;;;;6272409;22;20110;-84
2022/07/10 05:56:12;;;;;;;8.32;1.25;;;15.00;99.90;;;;;;6273268;22;20510;-88
2022/07/10 05:58:38;;;;;;;7.90;1.63;;;15.00;99.90;;;;;;6247453;22;20101;-87
2022/07/10 06:01:05;;;;;;;6.00;1.60;;;15.00;99.90;;;;;;6249218;22;20023;-84
2022/07/10 06:03:32;;;;;;;6.53;1.30;;;15.00;99.90;;;;;;6270783;22;20018;-85
2022/07/10 06:06:01;;;;;;;8.20;1.30;;;15.00;99.90;;;;;;6272268;22;20386;-85
2022/07/10 06:08:29;;;;;;;6.53;1.38;;;15.00;99.90;;;;;;6300440;22;20023;-89
2022/07/10 06:10:55;;;;;;;9.88;1.40;;;15.00;99.90;;;;;;6303324;22;20321;-86
2022/07/10 06:13:21;;;;;;;9.68;1.20;;;15.00;99.90;;;;;;6331061;22;20011;-87
2022/07/10 06:15:47;;;;;;;8.57;1.40;;;15.00;99.90;;;;;;6322843;22;20018;-88
2022/07/10 06:18:16;;;;;;;8.77;1.27;;;15.00;99.90;;;;;;6335033;22;20018;-86
2022/07/10 06:20:42;;;;;;;4.95;1.10;;;15.00;99.90;;;;;;6294786;22;20023;-85
2022/07/10 06:23:30;;;;;;;5.55;1.23;;;15.10;99.90;;;;;;6304494;22;20097;-82
2022/07/10 06:25:56;;;;;;;5.53;1.17;;;15.30;99.90;;;;;;6306311;22;20017;-84
2022/07/10 06:28:28;;;;;;;7.43;1.20;;;15.10;99.90;;;;;;6332560;22;20392;-85
2022/07/10 06:30:53;;;;;;;7.78;1.48;;;15.10;99.90;;;;;;6273207;22;20084;-86
2022/07/10 06:33:25;;;;;;;7.45;1.33;;;15.10;99.90;;;;;;6283372;22;20030;-87
2022/07/10 06:35:51;;;;;;;6.63;1.00;;;15.10;99.90;;;;;;6300698;22;20360;-82
2022/07/10 06:38:21;;;;;;;7.82;1.40;;;15.10;99.90;;;;;;6309935;22;20070;-85
2022/07/10 06:40:51;;;;;;;7.53;1.30;;;15.10;99.90;;;;;;6300171;22;20105;-90
2022/07/10 06:43:21;;;;;;;6.13;1.65;;;15.00;99.90;;;;;;6309379;22;20022;-88
2022/07/10 06:45:47;;;;;;;6.30;1.20;;;14.90;99.90;;;;;;6299901;22;20097;-85
2022/07/10 06:48:14;;;;;;;7.75;1.52;;;14.80;99.90;;;;;;6283035;22;20030;-81
2022/07/10 06:50:59;;;;;;;6.88;1.25;;;14.80;99.90;;;;;;6269742;22;20018;-81
2022/07/10 06:53:26;;;;;;;5.90;1.00;;;14.80;99.90;;;;;;6283150;22;20022;-79
2022/07/10 06:55:53;;;;;;;;;;;14.80;99.90;;;;;;6273751;22;20072;-79
2022/07/10 06:58:21;;;;;;;6.55;1.40;;;14.80;99.90;;;;;;6306965;22;19918;-88
2022/07/10 07:00:47;;;;;;;7.18;1.42;;;14.90;99.90;;;;;;6272541;22;20019;-83
2022/07/10 07:03:14;;;;;;;6.30;1.00;;;14.90;99.90;;;;;;6332906;22;20103;-83
2022/07/10 07:05:41;;;;;;;8.90;1.25;;;14.90;99.90;;;;;;6296366;22;20109;-84
2022/07/10 07:08:07;;;;;;;4.40;0.90;;;14.90;99.90;;;;;;6277837;22;20016;-91
2022/07/10 07:10:52;;;;;;;10.65;1.52;;;14.90;99.90;;;;;;6277464;22;20092;-85
2022/07/10 07:13:21;;;;;;;5.50;1.00;;;15.00;99.90;;;;;;6252079;22;20023;-88
2022/07/10 07:16:04;;;;;;;7.40;1.20;;;15.10;99.90;;;;;;6298026;22;20782;-89
2022/07/10 07:18:35;;;;;;;8.55;1.55;;;15.10;99.90;;;;;;6256939;22;20023;-85
2022/07/10 07:23:49;;;;;;;4.93;1.10;;;15.20;99.90;;;;;;6300144;22;20023;-79
2022/07/10 07:26:16;;;;;;;5.70;1.00;;;15.20;99.90;;;;;;6274397;22;20054;-80
2022/07/10 07:28:43;;;;;;;5.93;0.98;;;15.30;99.90;;;;;;6251591;22;20034;-85
2022/07/10 07:31:11;;;;;;;6.45;1.00;;;15.30;99.90;;;;;;6277476;22;20424;-90
2022/07/10 07:33:38;;;;;;;7.18;0.80;;;15.30;99.90;;;;;;6251692;22;20012;-85
2022/07/10 07:36:04;;;;;;;8.18;1.13;;;15.40;99.90;;;;;;6302797;22;20011;-85
2022/07/10 07:38:30;;;;;;;6.57;1.38;;;15.40;99.90;;;;;;6250893;22;20027;-83
2022/07/10 07:40:58;;;;;;;8.95;1.23;;;15.40;99.90;;;;;;6226081;22;20026;-85
2022/07/10 07:43:24;;;;;;;3.90;1.05;;;15.40;99.90;;;;;;6277277;22;20423;-82
2022/07/10 07:45:50;;;;;;;5.85;0.80;;;15.50;99.90;;;;;;6276115;22;20073;-80
2022/07/10 07:48:17;;;;;;;3.45;0.82;;;15.50;99.90;;;;;;6276265;22;20106;-81
2022/07/10 07:50:44;;;;;;;5.57;0.85;;;15.50;99.90;;;;;;6276303;22;20102;-88
2022/07/10 07:53:11;;;;;;;4.18;1.05;;;15.50;99.90;;;;;;6302351;22;20114;-86
2022/07/10 07:55:38;;;;;;;8.48;1.00;;;15.60;99.90;;;;;;6246888;22;20016;-82
2022/07/10 07:58:05;;;;;;;5.60;0.82;;;15.60;99.90;;;;;;6220097;22;20093;-82
2022/07/10 08:00:31;;;;;;;4.35;0.77;;;15.60;99.90;;;;;;6224712;22;20429;-82
2022/07/10 08:03:01;;;;;;;4.63;0.73;;;15.70;99.90;;;;;;6301975;22;20503;-87
2022/07/10 08:05:27;;;;;;;4.68;0.80;;;15.70;99.90;;;;;;6275384;22;20019;-86
2022/07/10 08:08:01;;;;;;;2.67;0.63;;;15.70;99.90;;;;;;6284168;22;20015;-87
2022/07/10 08:10:27;;;;;;;3.90;0.70;;;15.70;99.90;;;;;;6307074;22;20631;-83
2022/07/10 08:12:56;;;;;;;6.00;1.15;;;15.60;99.90;;;;;;6298033;22;20019;-88
2022/07/10 08:15:23;;;;;;;3.78;0.88;;;15.50;99.90;;;;;;6333651;22;20022;-83
2022/07/10 08:17:51;;;;;;;3.08;0.63;;;15.50;99.90;;;;;;6270078;22;20019;-84
2022/07/10 08:20:17;;;;;;;4.05;0.77;;;15.40;99.90;;;;;;6305324;22;20084;-88
2022/07/10 08:22:44;;;;;;;2.92;0.80;;;15.40;99.90;;;;;;6243923;22;20022;-84
2022/07/10 08:25:10;;;;;;;3.00;1.00;;;15.30;99.90;;;;;;6306691;22;20022;-87
2022/07/10 08:27:59;;;;;;;4.07;0.65;;;15.30;99.90;;;;;;6333384;22;20421;-87
2022/07/10 08:30:25;;;;;;;3.90;0.93;;;15.30;99.90;;;;;;6333176;22;20736;-82
2022/07/10 08:32:51;;;;;;;2.88;0.70;;;15.30;99.90;;;;;;6295670;22;20447;-83
2022/07/10 08:35:17;;;;;;;5.60;1.13;;;15.30;99.90;;;;;;6330357;22;20320;-85
2022/07/10 08:37:45;;;;;;;6.45;1.33;;;15.40;99.90;;;;;;6268198;22;20015;-90
2022/07/10 08:40:13;;;;;;;6.30;1.08;;;15.30;99.90;;;;;;6329498;22;20509;-82
2022/07/10 08:42:41;;;;;;;3.47;0.75;;;15.30;99.90;;;;;;6305694;22;20019;-85
2022/07/10 08:45:10;;;;;;;4.95;1.25;;;15.30;99.90;;;;;;6329543;22;20042;-84
2022/07/10 08:47:38;;;;;;;7.10;1.00;;;15.30;99.90;;;;;;6330450;22;20051;-85
2022/07/10 08:50:07;;;;;;;4.15;0.63;;;15.40;99.90;;;;;;6295534;22;20026;-83
2022/07/10 08:52:48;;;;;;;4.55;0.80;;;15.50;99.90;;;;;;6323163;22;20022;-85
2022/07/10 08:55:14;;;;;;;4.82;0.70;;;15.60;99.90;;;;;;6322823;22;20019;-84
2022/07/10 08:57:42;;;;;;;4.20;0.60;;;15.70;99.90;;;;;;6291790;22;20025;-87
2022/07/10 09:00:11;;;;;;;2.33;0.57;;;15.90;99.90;;;;;;6331794;22;20746;-85
2022/07/10 09:02:37;;;;;;;2.72;0.60;;;16.00;99.90;;;;;;6332002;22;20510;-83
2022/07/10 09:05:06;;;;;;;4.35;0.70;;;16.00;99.90;;;;;;6321377;22;20050;-83
2022/07/10 09:07:36;;;;;;;4.63;0.88;;;16.00;99.90;;;;;;6330781;22;20014;-82
2022/07/10 09:10:07;;;;;;;6.47;0.70;;;16.00;99.90;;;;;;6331305;22;20045;-87
2022/07/10 09:12:56;;;;;;;5.32;0.70;;;16.00;99.90;;;;;;6304882;22;20018;-87
2022/07/10 09:15:24;;;;;;;3.30;0.50;;;16.10;99.90;;;;;;6332486;22;20163;-81
2022/07/10 09:18:07;;;;;;;4.63;0.60;;;16.20;99.90;;;;;;6319585;22;20023;-82
2022/07/10 09:20:35;;;;;;;3.28;0.60;;;16.30;99.90;;;;;;6328829;22;20069;-83
2022/07/10 09:23:25;;;;;;;4.95;0.68;;;16.40;99.90;;;;;;6322628;22;20089;-84
2022/07/10 09:25:53;;;;;;;3.50;0.40;;;16.40;99.90;;;;;;6329044;22;20523;-85
2022/07/10 09:28:21;;;;;;;1.92;0.47;;;16.40;99.90;;;;;;6279562;22;20019;-82
2022/07/10 09:30:48;;;;;;;2.45;0.45;;;16.40;99.90;;;;;;6295304;22;20015;-86
2022/07/10 09:33:26;;;;;;;1.88;0.35;;;16.40;99.90;;;;;;6304522;22;20093;-85
2022/07/10 09:36:05;;;;;;;2.53;0.60;;;16.50;99.90;;;;;;6295994;22;20026;-89
2022/07/10 09:38:43;;;;;;;1.88;0.60;;;16.60;99.90;;;;;;6304109;22;20018;-88
2022/07/10 09:41:12;;;;;;;1.17;0.47;;;16.60;99.90;;;;;;6297578;22;20022;-83
2022/07/10 09:43:45;;;;;;;3.70;0.60;;;16.60;99.90;;;;;;6329855;22;20011;-85
2022/07/10 09:46:14;;;;;;;2.40;0.50;;;16.50;99.90;;;;;;6305563;22;20025;-91
2022/07/10 09:48:41;;;;;;;3.75;0.82;;;16.40;99.90;;;;;;6303179;22;20011;-86
2022/07/10 09:51:11;;;;;;;4.68;0.75;;;16.30;99.90;;;;;;6303776;22;20023;-86
2022/07/10 09:53:44;;;;;;;6.60;0.68;;;16.30;99.90;;;;;;6329761;22;20017;-82
2022/07/10 09:56:12;;;;;;;1.50;0.60;;;16.30;99.90;;;;;;6330300;22;20014;-87
2022/07/10 09:58:41;;;;;;;3.53;0.93;;;16.30;99.90;;;;;;6279103;22;20083;-84
2022/07/10 10:01:08;;;;;;;3.75;0.70;;;16.30;99.90;;;;;;6305138;22;20053;-87
2022/07/10 10:03:37;;;;;;;;;;;16.30;99.90;;;;;;6306105;22;20014;-87
2022/07/10 10:06:14;;;;;;;1.92;0.60;;;16.30;99.90;;;;;;6296764;22;19989;-86
2022/07/10 10:08:54;;;;;;;2.97;0.88;;;16.30;99.90;;;;;;6331283;22;20084;-81
2022/07/10 10:11:25;;;;;;;4.45;1.08;;;16.20;99.90;;;;;;6332345;22;20018;-82
2022/07/10 10:13:53;;;;;;;3.22;0.80;;;16.30;99.90;;;;;;6325091;22;20019;-80
2022/07/10 10:16:25;;;;;;;;;;;16.30;99.90;;;;;;6288817;22;20025;-87
2022/07/10 10:21:38;;;;;;;1.92;0.77;;;16.20;99.90;;;;;;6309778;22;20026;-86
2022/07/10 10:24:06;;;;;;;3.53;1.02;;;15.90;99.90;;;;;;6302058;22;20440;-86
2022/07/10 10:26:33;;;;;;;3.45;1.25;;;15.70;99.90;;;;;;6304972;22;20092;-87
2022/07/10 10:29:04;;;;;;;4.15;1.20;;;15.70;99.90;;;;;;6263051;22;20058;-85
2022/07/10 10:31:32;;;;;;;2.97;1.40;;;15.70;99.90;;;;;;6301920;22;20123;-83
2022/07/10 10:34:00;;;;;;;4.32;1.38;;;15.70;99.90;;;;;;6266316;22;20094;-79
2022/07/10 10:36:44;;;;;;;4.65;1.40;;;15.80;99.90;;;;;;6327721;22;20019;-89
2022/07/10 10:39:12;;;;;;;6.10;1.83;;;15.90;99.90;;;;;;6323922;22;20076;-88
2022/07/10 10:41:42;;;;;;;6.75;1.90;;;16.00;99.90;;;;;;6279710;22;20019;-86
2022/07/10 10:44:16;;;;;;;4.03;1.52;;;16.20;99.90;;;;;;6305243;22;20137;-82
2022/07/10 10:46:56;;;;;;;3.80;1.27;;;16.30;99.90;;;;;;6332460;22;20023;-84
2022/07/10 10:49:25;;;;;;;3.85;1.48;;;16.40;99.90;;;;;;6303180;22;20531;-89
2022/07/10 10:52:08;;;;;;;5.13;1.45;;;16.50;99.90;;;;;;6293968;22;20501;-82
2022/07/10 10:54:56;;;;;;;5.65;1.70;;;16.50;99.90;;;;;;6329703;22;20057;-87
2022/07/10 10:57:50;;;;;;;3.38;1.20;;;16.30;99.90;;;;;;6325875;22;20050;-86
2022/07/10 11:00:37;;;;;;;6.45;1.67;;;16.20;99.90;;;;;;6324441;22;20242;-85
2022/07/10 11:03:17;;;;;;;3.00;1.23;;;16.10;99.90;;;;;;6328423;22;20029;-81
2022/07/10 11:05:44;;;;;;;3.63;1.10;;;15.90;99.90;;;;;;6318531;22;20015;-82
2022/07/10 11:08:11;;;;;;;9.43;1.50;;;15.90;99.90;;;;;;6253257;22;20021;-83
2022/07/10 11:10:44;;;;;;;6.78;1.45;;;15.90;99.90;;;;;;6317321;22;20032;-84
2022/07/10 11:13:18;;;;;;;5.95;1.52;;;16.00;99.90;;;;;;6326728;22;20136;-83
2022/07/10 11:15:52;;;;;;;8.75;1.90;;;16.00;99.90;;;;;;6331435;22;20046;-79
2022/07/10 11:18:21;;;;;;;4.60;1.77;;;16.00;99.90;;;;;;6329206;22;20016;-85
2022/07/10 11:20:49;;;;;;;10.02;2.20;;;16.10;99.90;;;;;;6293616;22;20022;-84
2022/07/10 11:23:43;;;;;;;7.90;2.03;;;16.10;99.90;;;;;;6304237;22;20025;-83
2022/07/10 11:26:30;;;;;;;6.47;1.92;;;16.20;99.90;;;;;;6324227;22;20018;-80
2022/07/10 11:29:02;;;;;;;7.78;1.80;;;16.20;99.90;;;;;;6329449;22;20019;-86
2022/07/10 11:31:31;;;;;;;5.03;1.67;;;16.20;99.90;;;;;;6330115;22;20015;-87
2022/07/10 11:33:56;;;;;;;9.13;2.30;;;16.30;99.90;;;;;;6320525;22;20027;-87
2022/07/10 11:36:28;;;;;;;5.95;1.63;;;16.30;99.90;;;;;;6304226;22;20020;-86
2022/07/10 11:39:05;;;;;;;7.05;1.75;;;16.30;99.90;;;;;;6270308;22;20022;-85
2022/07/10 11:41:32;;;;;;;8.38;1.70;;;16.30;99.90;;;;;;6329940;22;20130;-86
2022/07/10 11:44:02;;;;;;;5.10;1.77;;;16.20;99.90;;;;;;6321884;22;20014;-84
2022/07/10 11:46:30;;;;;;;5.88;1.80;;;16.20;99.90;;;;;;6327875;22;20093;-86
2022/07/10 11:48:57;;;;;;;4.15;1.60;;;16.30;99.90;;;;;;6319260;22;20025;-80
2022/07/10 11:51:42;;;;;;;7.82;2.08;;;16.30;99.90;;;;;;6329300;22;20015;-82
2022/07/10 11:54:15;;;;;;;4.22;1.35;;;16.30;99.90;;;;;;6298067;22;20102;-88
2022/07/10 11:56:49;;;;;;;6.32;1.80;;;16.30;99.90;;;;;;6330831;22;20094;-83
2022/07/10 11:59:16;;;;;;;6.78;1.60;;;16.40;99.90;;;;;;6333228;22;20083;-90
2022/07/10 12:01:43;;;;;;;4.50;1.00;;;16.50;99.90;;;;;;6295082;22;20015;-87
2022/07/10 12:04:09;;;;;;;5.03;1.15;;;16.60;99.90;;;;;;6332095;22;20017;-85
2022/07/10 12:06:38;;;;;;;3.58;0.73;;;16.50;99.90;;;;;;6280482;22;20025;-84
2022/07/10 12:09:05;;;;;;;6.13;1.00;;;16.60;99.90;;;;;;6331013;22;20018;-86
2022/07/10 12:11:32;;;;;;;0.90;0.50;;;16.60;99.90;;;;;;6280811;22;20033;-80
2022/07/10 12:14:16;;;;;;;3.83;0.90;;;16.70;99.90;;;;;;6331211;22;20021;-83
2022/07/10 12:16:43;;;;;;;2.42;0.75;;;16.80;99.90;;;;;;6318911;22;20072;-83
2022/07/10 12:19:12;;;;;;;2.97;1.05;;;16.90;99.90;;;;;;6304203;22;20022;-83
2022/07/10 12:21:43;;;;;;;5.68;1.25;;;16.90;99.90;;;;;;6318013;22;20015;-81
2022/07/10 12:24:10;;;;;;;4.68;1.10;;;16.90;99.90;;;;;;6305595;22;20087;-82
2022/07/10 12:26:39;;;;;;;6.35;1.10;;;17.00;99.90;;;;;;6282298;22;20050;-85
2022/07/10 12:29:05;;;;;;;3.17;0.93;;;17.00;99.90;;;;;;6331159;22;20014;-86
2022/07/10 12:31:37;;;;;;;2.25;0.88;;;17.00;99.90;;;;;;6331073;22;20019;-88
2022/07/10 12:34:05;;;;;;;4.18;1.08;;;17.00;99.90;;;;;;6299853;22;20102;-89
2022/07/10 12:36:50;;;;;;;2.47;0.80;;;16.90;99.90;;;;;;6280507;22;20393;-83
2022/07/10 12:39:21;;;;;;;2.60;0.80;;;16.90;99.90;;;;;;6328590;22;20050;-87
2022/07/10 12:42:05;;;;;;;4.40;1.00;;;16.90;99.90;;;;;;6294868;22;20101;-86
2022/07/10 12:44:43;;;;;;;6.13;1.35;;;17.00;99.90;;;;;;6304355;22;20022;-84
2022/07/10 12:47:17;;;;;;;3.00;0.90;;;17.00;99.90;;;;;;6273714;22;20094;-82
2022/07/10 12:49:53;;;;;;;3.60;0.95;;;16.90;99.90;;;;;;6331114;22;20094;-87
2022/07/10 12:52:24;;;;;;;4.68;1.17;;;16.90;99.90;;;;;;6301073;22;20352;-84
2022/07/10 12:55:13;;;;;;;5.22;1.38;;;16.90;99.90;;;;;;6296409;22;20085;-87
2022/07/10 12:57:59;;;;;;;2.72;1.30;;;16.70;99.90;;;;;;6293733;22;20029;-88
2022/07/10 13:00:33;;;;;;;4.65;1.40;;;16.50;99.90;;;;;;6281332;22;20019;-89
2022/07/10 13:03:06;;;;;;;3.90;1.30;;;16.40;99.90;;;;;;6325286;22;20023;-84
2022/07/10 13:05:34;;;;;;;5.90;1.95;;;16.30;99.90;;;;;;6307334;22;20030;-87
2022/07/10 13:08:24;;;;;;;3.65;1.55;;;16.20;99.90;;;;;;6273995;22;20445;-85
2022/07/10 13:11:01;;;;;;;6.15;1.83;;;16.30;99.90;;;;;;6333654;22;20388;-88
2022/07/10 13:13:45;;;;;;;7.35;1.83;;;16.30;99.90;;;;;;6308054;22;20026;-86
2022/07/10 13:16:12;;;;;;;4.45;1.50;;;16.50;99.90;;;;;;6302452;22;20023;-85
2022/07/10 13:18:38;;;;;;;5.18;1.10;;;16.60;99.90;;;;;;6331413;22;20611;-88
2022/07/10 13:21:04;;;;;;;6.40;1.27;;;16.60;99.90;;;;;;6279611;22;20045;-83
2022/07/10 13:23:33;;;;;;;3.65;1.52;;;16.70;99.90;;;;;;6306650;22;20437;-90
2022/07/10 13:26:00;;;;;;;3.33;1.30;;;16.70;99.90;;;;;;6297345;22;20072;-88
2022/07/10 13:28:27;;;;;;;5.07;1.63;;;16.70;99.90;;;;;;6306627;22;20011;-92